TAF Text Data
IDs:
Format:
Raw Decoded Include METAR

Data at: 0153 UTC 29 Nov 2020

KMHT 282320Z 2900/2924 29003KT P6SM FEW100
  FM290800 22004KT P6SM SKC